Time;durP1;ratioP1;P1;durP2;ratioP2;P2;SDS_P1;SDS_P2;PMS_P1;PMS_P2;Temp;Humidity;BMP_temperature;BMP_pressure;BME280_temperature;BME280_humidity;BME280_pressure;Samples;Min_cycle;Max_cycle;Signal;HPM_P1;HPM_P2
2023/07/23 00:01:14;;;;;;;13.05;4.70;;;;;;;22.37;84.05;94580.75;5075266;28;20199;-75
2023/07/23 00:03:41;;;;;;;9.82;4.00;;;;;;;22.46;84.55;94578.31;5080790;28;20297;-75
2023/07/23 00:06:09;;;;;;;10.55;3.90;;;;;;;22.58;83.69;94577.81;5070065;28;20211;-75
2023/07/23 00:08:36;;;;;;;7.80;3.30;;;;;;;22.55;84.18;94586.16;5080388;28;20218;-76
2023/07/23 00:11:02;;;;;;;10.55;4.40;;;;;;;22.46;85.54;94586.59;5072463;28;20195;-75
2023/07/23 00:13:29;;;;;;;9.45;4.28;;;;;;;22.53;85.01;94596.81;5072641;28;20536;-75
2023/07/23 00:15:56;;;;;;;11.70;4.13;;;;;;;22.61;84.83;94601.09;5072328;28;20627;-74
2023/07/23 00:18:23;;;;;;;10.35;4.10;;;;;;;22.47;86.21;94596.44;5072498;28;20230;-75
2023/07/23 00:20:50;;;;;;;10.68;4.72;;;;;;;22.55;85.90;94588.94;5071941;28;20202;-74
2023/07/23 00:23:18;;;;;;;8.23;4.20;;;;;;;22.57;84.86;94586.50;5072010;28;20725;-75
2023/07/23 00:25:45;;;;;;;10.73;4.13;;;;;;;22.49;83.98;94602.34;5072186;28;20257;-74
2023/07/23 00:28:11;;;;;;;7.53;3.65;;;;;;;22.37;82.99;94610.31;5081566;28;20530;-75
2023/07/23 00:30:38;;;;;;;13.02;4.38;;;;;;;22.32;83.57;94597.72;5076444;28;20563;-75
2023/07/23 00:33:05;;;;;;;11.18;4.35;;;;;;;22.38;85.52;94607.16;5071298;28;20577;-74
2023/07/23 00:35:32;;;;;;;6.43;3.97;;;;;;;22.37;83.36;94616.63;5071587;28;20225;-75
2023/07/23 00:37:59;;;;;;;10.82;3.88;;;;;;;22.29;82.96;94620.59;5071484;28;20551;-75
2023/07/23 00:40:27;;;;;;;13.80;4.97;;;;;;;22.18;86.34;94622.63;5072096;28;20211;-75
2023/07/23 00:42:54;;;;;;;9.90;4.47;;;;;;;22.29;85.72;94626.13;5071603;28;20639;-75
2023/07/23 00:45:22;;;;;;;10.15;3.88;;;;;;;22.29;86.72;94615.88;5071380;28;20336;-75
2023/07/23 00:47:49;;;;;;;11.55;4.32;;;;;;;22.28;86.49;94622.56;5071439;28;20285;-74
2023/07/23 00:50:16;;;;;;;9.00;4.38;;;;;;;22.28;86.79;94625.34;5071243;28;20634;-75
2023/07/23 00:52:44;;;;;;;9.63;4.10;;;;;;;22.18;86.73;94614.34;5071369;28;20605;-74
2023/07/23 00:55:11;;;;;;;9.82;4.10;;;;;;;22.17;87.11;94612.78;5071553;28;20589;-75
2023/07/23 00:57:39;;;;;;;10.35;4.60;;;;;;;22.16;86.94;94616.72;5072076;28;20614;-74
2023/07/23 01:00:09;;;;;;;10.20;4.25;;;;;;;22.09;86.36;94623.09;5073128;28;20195;-74
2023/07/23 01:02:36;;;;;;;9.63;4.20;;;;;;;22.04;86.97;94622.69;5071578;28;20473;-75
2023/07/23 01:05:04;;;;;;;9.18;4.57;;;;;;;22.01;87.18;94637.28;5070886;28;20228;-74
2023/07/23 01:07:31;;;;;;;16.30;5.10;;;;;;;22.02;87.27;94627.84;5070729;28;20235;-75
2023/07/23 01:09:59;;;;;;;15.02;4.18;;;;;;;22.04;88.48;94642.00;5070811;28;20210;-75
2023/07/23 01:12:26;;;;;;;9.00;4.45;;;;;;;22.12;87.63;94638.06;5071211;28;20218;-75
2023/07/23 01:14:54;;;;;;;7.70;3.90;;;;;;;22.00;88.74;94642.06;5071374;28;20535;-75
2023/07/23 01:17:21;;;;;;;9.45;4.47;;;;;;;21.94;87.45;94643.59;5071005;28;20249;-75
2023/07/23 01:19:59;;;;;;;10.93;4.30;;;;;;;21.97;87.42;94654.63;5071023;28;20234;-75
2023/07/23 01:22:27;;;;;;;11.20;4.35;;;;;;;22.17;87.23;94643.13;5071025;28;20191;-75
2023/07/23 01:24:55;;;;;;;10.02;4.18;;;;;;;22.09;87.33;94639.63;5071343;28;20660;-76
2023/07/23 01:27:21;;;;;;;8.00;4.28;;;;;;;22.12;87.13;94649.09;5071283;28;20215;-75
2023/07/23 01:29:48;;;;;;;10.20;3.85;;;;;;;22.03;86.62;94668.03;5071073;28;20215;-76
2023/07/23 01:32:15;;;;;;;6.68;3.38;;;;;;;21.61;86.55;94670.47;5070159;28;20569;-75
2023/07/23 01:34:42;;;;;;;8.57;4.03;;;;;;;21.33;87.86;94675.25;5071013;28;20213;-75
2023/07/23 01:37:10;;;;;;;10.80;4.13;;;;;;;21.43;88.38;94668.94;5084197;28;20573;-75
2023/07/23 01:39:38;;;;;;;10.63;3.88;;;;;;;21.51;87.12;94681.53;5070901;28;20222;-75
2023/07/23 01:42:09;;;;;;;9.60;4.18;;;;;;;21.59;86.47;94685.88;5070869;28;20199;-76
2023/07/23 01:44:35;;;;;;;10.90;3.85;;;;;;;21.66;86.33;94677.56;5082823;28;20237;-75
2023/07/23 01:47:02;;;;;;;9.85;3.67;;;;;;;21.43;85.66;94691.00;5071683;28;20226;-75
2023/07/23 01:49:29;;;;;;;9.30;4.05;;;;;;;21.26;87.14;94693.38;5070797;28;20294;-75
2023/07/23 01:51:56;;;;;;;8.32;4.25;;;;;;;21.33;87.55;94709.09;5076031;28;20716;-75
2023/07/23 01:54:23;;;;;;;7.40;3.92;;;;;;;21.33;87.38;94705.56;5078596;28;20568;-75
2023/07/23 01:56:51;;;;;;;11.98;3.72;;;;;;;21.35;86.87;94708.72;5076588;28;20247;-75
2023/07/23 01:59:17;;;;;;;10.40;4.55;;;;;;;21.30;88.39;94715.41;5078629;28;20218;-75
2023/07/23 02:01:44;;;;;;;8.35;4.63;;;;;;;21.28;88.83;94724.09;5071272;28;20199;-74
2023/07/23 02:04:11;;;;;;;12.60;4.20;;;;;;;21.25;87.73;94737.84;5070184;28;20214;-74
2023/07/23 02:06:38;;;;;;;10.70;4.35;;;;;;;21.24;89.57;94748.09;5070285;28;20203;-74
2023/07/23 02:09:05;;;;;;;12.18;4.35;;;;;;;21.17;89.66;94756.31;5069963;28;20199;-75
2023/07/23 02:11:31;;;;;;;7.25;3.97;;;;;;;21.16;90.95;94760.25;5070367;28;20195;-75
2023/07/23 02:13:59;;;;;;;9.02;3.90;;;;;;;21.24;89.73;94761.06;5070238;28;20214;-76
2023/07/23 02:16:26;;;;;;;8.98;3.88;;;;;;;21.30;87.47;94758.72;5076800;28;20287;-74
2023/07/23 02:18:53;;;;;;;9.55;3.90;;;;;;;21.32;87.85;94756.38;5076637;28;20219;-75
2023/07/23 02:21:20;;;;;;;11.82;3.97;;;;;;;21.34;86.60;94748.47;5057013;28;20199;-74
2023/07/23 02:23:46;;;;;;;12.20;5.47;;;;;;;21.37;83.83;94764.22;5069722;28;20573;-72
2023/07/23 02:26:13;;;;;;;9.57;3.88;;;;;;;21.42;83.06;94758.34;5069515;28;20288;-73
2023/07/23 02:28:43;;;;;;;11.07;3.95;;;;;;;21.53;82.17;94762.66;5069691;28;20207;-74
2023/07/23 02:31:11;;;;;;;16.85;5.32;;;;;;;21.81;80.68;94750.81;5069431;28;20333;-73
2023/07/23 02:33:38;;;;;;;14.40;4.32;;;;;;;21.95;80.29;94755.53;5069198;28;20697;-74
2023/07/23 02:36:05;;;;;;;9.85;3.65;;;;;;;21.96;80.78;94757.91;5068947;28;20199;-71
2023/07/23 02:38:32;;;;;;;8.52;4.05;;;;;;;22.14;80.96;94746.81;5082736;28;20203;-71
2023/07/23 02:41:00;;;;;;;16.73;5.07;;;;;;;22.19;81.37;94756.69;5069593;28;20207;-71
2023/07/23 02:43:26;;;;;;;8.40;5.13;;;;;;;22.22;81.31;94758.66;5083192;28;20226;-73
2023/07/23 02:45:53;;;;;;;13.50;4.68;;;;;;;22.28;81.88;94757.03;5069345;28;20781;-76
2023/07/23 02:48:21;;;;;;;16.30;5.78;;;;;;;22.19;82.26;94753.91;5083341;28;20673;-76
2023/07/23 02:50:48;;;;;;;11.07;5.07;;;;;;;22.36;81.73;94758.59;5069612;28;20581;-73
2023/07/23 02:53:15;;;;;;;8.90;5.10;;;;;;;22.39;81.87;94757.81;5068828;28;20615;-74
2023/07/23 02:55:42;;;;;;;14.85;5.20;;;;;;;22.45;81.74;94778.28;5069427;28;20218;-73
2023/07/23 02:58:08;;;;;;;4.88;3.35;;;;;;;22.44;82.23;94771.19;5082968;28;20210;-74
2023/07/23 03:00:37;;;;;;;13.38;6.30;;;;;;;22.39;82.93;94773.59;5071808;28;20195;-74
2023/07/23 03:03:06;;;;;;;14.73;6.93;;;;;;;22.31;83.46;94778.31;5069350;28;20652;-74
2023/07/23 03:05:35;;;;;;;14.13;7.30;;;;;;;22.35;83.64;94770.84;5079834;28;20230;-74
2023/07/23 03:08:02;;;;;;;12.55;6.97;;;;;;;22.33;83.84;94773.19;5070661;28;20654;-73
2023/07/23 03:10:29;;;;;;;14.43;7.05;;;;;;;22.25;84.22;94774.41;5069077;28;20304;-73
2023/07/23 03:12:56;;;;;;;11.27;6.88;;;;;;;22.33;83.98;94762.16;5069361;28;20210;-74
2023/07/23 03:15:23;;;;;;;12.80;7.32;;;;;;;22.26;84.27;94760.22;5068946;28;20689;-74
2023/07/23 03:17:51;;;;;;;13.77;7.88;;;;;;;22.23;85.09;94765.75;5069282;28;20308;-73
2023/07/23 03:20:18;;;;;;;14.30;7.25;;;;;;;22.31;84.43;94759.00;5069311;28;20257;-74
2023/07/23 03:22:46;;;;;;;16.52;8.05;;;;;;;22.38;83.76;94767.28;5069138;28;20608;-74
2023/07/23 03:25:13;;;;;;;13.52;7.80;;;;;;;22.50;83.19;94757.75;5068805;28;20698;-75
2023/07/23 03:27:39;;;;;;;16.92;7.50;;;;;;;22.62;82.22;94754.56;5069153;28;20199;-75
2023/07/23 03:30:07;;;;;;;11.48;7.72;;;;;;;22.85;80.98;94751.31;5069099;28;20268;-77
2023/07/23 03:32:34;;;;;;;12.07;7.07;;;;;;;23.08;79.79;94765.41;5069083;28;20242;-73
2023/07/23 03:35:01;;;;;;;12.90;6.93;;;;;;;23.49;78.09;94759.19;5068682;28;20252;-74
2023/07/23 03:37:28;;;;;;;10.80;7.22;;;;;;;23.55;76.74;94755.59;5069405;28;20199;-75
2023/07/23 03:39:56;;;;;;;11.25;7.32;;;;;;;23.74;75.16;94763.34;5068888;28;20672;-74
2023/07/23 03:42:24;;;;;;;15.10;7.20;;;;;;;24.06;74.42;94760.25;5069096;28;20203;-75
2023/07/23 03:44:51;;;;;;;14.70;6.38;;;;;;;24.46;72.54;94763.44;5069958;28;20593;-74
2023/07/23 03:47:20;;;;;;;11.52;8.30;;;;;;;24.60;71.68;94763.25;5060966;28;20206;-74
2023/07/23 03:49:47;;;;;;;13.50;8.20;;;;;;;24.93;69.82;94763.66;5072781;28;20688;-75
2023/07/23 03:52:15;;;;;;;13.57;8.13;;;;;;;25.19;68.97;94762.91;5073218;28;20207;-75
2023/07/23 03:54:41;;;;;;;14.90;8.95;;;;;;;25.35;68.31;94774.16;5073002;28;20206;-75
2023/07/23 03:57:10;;;;;;;12.80;8.27;;;;;;;25.36;67.92;94764.66;5072864;28;20210;-75
2023/07/23 03:59:38;;;;;;;14.77;8.68;;;;;;;25.83;66.02;94770.28;5074076;28;20198;-76
2023/07/23 04:02:06;;;;;;;13.55;8.50;;;;;;;26.01;65.05;94765.19;5072819;28;20268;-75
2023/07/23 04:04:33;;;;;;;10.63;8.13;;;;;;;26.66;62.31;94765.56;5072869;28;20211;-75
2023/07/23 04:06:59;;;;;;;12.48;8.82;;;;;;;26.49;62.99;94766.72;5073003;28;20231;-75
2023/07/23 04:09:26;;;;;;;11.90;6.57;;;;;;;26.95;61.48;94760.25;5072627;28;20207;-75
2023/07/23 04:11:53;;;;;;;19.20;9.48;;;;;;;27.22;60.89;94760.06;5073034;28;20207;-75
2023/07/23 04:14:21;;;;;;;10.48;8.27;;;;;;;27.20;60.44;94759.69;5072234;28;20289;-75
2023/07/23 04:16:48;;;;;;;15.18;8.80;;;;;;;27.69;58.92;94762.56;5072549;28;20670;-75
2023/07/23 04:19:15;;;;;;;15.43;9.20;;;;;;;28.01;57.53;94768.16;5071992;28;20285;-74
2023/07/23 04:21:42;;;;;;;12.30;8.48;;;;;;;28.29;57.13;94759.06;5072103;28;20764;-76
2023/07/23 04:24:09;;;;;;;22.85;8.13;;;;;;;27.90;57.68;94767.59;5072093;28;20207;-73
2023/07/23 04:26:36;;;;;;;10.63;8.52;;;;;;;28.10;56.84;94768.31;5072068;28;20280;-75
2023/07/23 04:29:02;;;;;;;13.98;8.85;;;;;;;28.93;55.21;94760.09;5072180;28;20195;-76
2023/07/23 04:31:31;;;;;;;13.13;8.93;;;;;;;28.16;56.21;94758.19;5071956;28;20242;-70
2023/07/23 04:33:58;;;;;;;15.73;9.80;;;;;;;27.90;57.62;94770.41;5076447;28;20270;-76
2023/07/23 04:36:25;;;;;;;13.73;9.48;;;;;;;28.78;55.71;94770.06;5080909;28;20205;-76
2023/07/23 04:38:52;;;;;;;15.63;9.07;;;;;;;28.87;54.93;94763.88;5072173;28;20199;-76
2023/07/23 04:41:19;;;;;;;12.82;8.73;;;;;;;29.13;54.58;94773.06;5072022;28;20207;-74
2023/07/23 04:43:45;;;;;;;11.13;8.77;;;;;;;29.72;53.20;94769.69;5072176;28;20998;-76
2023/07/23 04:46:13;;;;;;;12.43;9.25;;;;;;;29.92;51.72;94766.66;5071859;28;20276;-75
2023/07/23 04:48:41;;;;;;;15.75;10.38;;;;;;;28.68;54.37;94787.13;5071718;28;20264;-76
2023/07/23 04:51:09;;;;;;;15.65;9.02;;;;;;;29.55;53.52;94777.38;5071931;28;20198;-74
2023/07/23 04:53:36;;;;;;;13.40;8.35;;;;;;;29.51;51.82;94775.94;5071551;28;20666;-73
2023/07/23 04:56:04;;;;;;;12.23;9.77;;;;;;;29.06;53.86;94778.88;5071301;28;20215;-75
2023/07/23 04:58:32;;;;;;;13.48;8.77;;;;;;;30.16;50.97;94767.06;5071843;28;20328;-76
2023/07/23 05:01:01;;;;;;;11.00;9.40;;;;;;;30.70;49.82;94772.38;5072035;28;20203;-76
2023/07/23 05:03:28;;;;;;;11.20;8.75;;;;;;;30.82;48.76;94765.16;5071584;28;20294;-75
2023/07/23 05:06:02;;;;;;;9.82;7.70;;;;;;;30.97;47.41;94772.59;5071864;28;20234;-75
2023/07/23 05:08:29;;;;;;;12.55;8.35;;;;;;;31.07;47.31;94777.00;5058542;28;20580;-76
2023/07/23 05:11:00;;;;;;;11.13;8.85;;;;;;;31.36;47.39;94767.53;5071178;28;20198;-75
2023/07/23 05:13:27;;;;;;;10.13;8.07;;;;;;;30.50;48.13;94771.88;5071563;28;20673;-76
2023/07/23 05:15:53;;;;;;;9.02;7.55;;;;;;;29.75;48.45;94770.78;5072567;28;20203;-76
2023/07/23 05:18:20;;;;;;;15.20;8.45;;;;;;;29.48;50.43;94774.81;5083509;28;20697;-75
2023/07/23 05:20:47;;;;;;;12.77;7.85;;;;;;;29.08;51.45;94780.00;5070934;28;20696;-72
2023/07/23 05:23:15;;;;;;;10.35;8.02;;;;;;;30.10;50.09;94778.03;5071557;28;20301;-76
2023/07/23 05:25:43;;;;;;;10.10;6.65;;;;;;;30.03;47.20;94775.47;5071221;28;20234;-74
2023/07/23 05:28:10;;;;;;;9.65;7.10;;;;;;;31.62;44.69;94777.31;5071006;28;20558;-72
2023/07/23 05:30:37;;;;;;;12.23;7.05;;;;;;;31.97;44.78;94774.38;5071225;28;20238;-74
2023/07/23 05:33:04;;;;;;;8.60;6.88;;;;;;;31.72;43.80;94776.13;5070788;28;20842;-76
2023/07/23 05:35:31;;;;;;;11.02;7.30;;;;;;;31.49;45.17;94776.63;5086804;28;20214;-72
2023/07/23 05:37:58;;;;;;;10.40;8.25;;;;;;;32.24;44.44;94777.25;5081999;28;20606;-74
2023/07/23 05:40:26;;;;;;;8.30;7.47;;;;;;;32.68;44.47;94780.53;5070967;28;20213;-74
2023/07/23 05:42:56;;;;;;;12.70;8.00;;;;;;;30.97;48.34;94780.97;5071045;28;20199;-74
2023/07/23 05:45:23;;;;;;;10.48;7.50;;;;;;;30.91;47.60;94782.78;5070450;28;20230;-74
2023/07/23 05:47:50;;;;;;;11.60;7.57;;;;;;;30.56;48.69;94782.06;5071028;28;20260;-75
2023/07/23 05:50:17;;;;;;;12.05;7.93;;;;;;;29.97;50.97;94785.66;5084313;28;20203;-74
2023/07/23 05:52:43;;;;;;;11.40;7.80;;;;;;;30.31;48.19;94782.91;5070785;28;20268;-75
2023/07/23 05:55:10;;;;;;;14.50;6.88;;;;;;;30.33;48.74;94780.44;5070432;28;20245;-74
2023/07/23 05:57:38;;;;;;;13.60;9.10;;;;;;;29.46;52.78;94791.22;5071111;28;20199;-74
2023/07/23 06:00:07;;;;;;;9.63;7.65;;;;;;;28.79;53.11;94799.56;5072708;28;20269;-71
2023/07/23 06:02:34;;;;;;;10.98;7.97;;;;;;;30.12;51.87;94789.53;5070851;28;20226;-73
2023/07/23 06:05:00;;;;;;;10.75;8.00;;;;;;;31.35;49.81;94785.59;5070447;28;20206;-75
2023/07/23 06:07:27;;;;;;;10.80;7.80;;;;;;;31.16;49.71;94784.72;5082061;28;20230;-75
2023/07/23 06:09:54;;;;;;;12.43;8.40;;;;;;;30.59;50.56;94785.97;5071322;28;20207;-71
2023/07/23 06:12:21;;;;;;;12.48;7.78;;;;;;;31.03;49.64;94781.94;5070403;28;20286;-74
2023/07/23 06:14:49;;;;;;;11.85;7.95;;;;;;;31.63;48.55;94790.09;5069701;28;20195;-76
2023/07/23 06:17:16;;;;;;;11.07;7.80;;;;;;;32.56;45.90;94780.69;5069521;28;20199;-73
2023/07/23 06:19:42;;;;;;;13.10;8.05;;;;;;;32.74;44.88;94775.13;5070022;28;20653;-77
2023/07/23 06:22:09;;;;;;;11.43;8.00;;;;;;;30.63;50.91;94784.59;5069854;28;20202;-73
2023/07/23 06:24:36;;;;;;;10.75;7.90;;;;;;;31.24;49.71;94788.00;5070335;28;20210;-78
2023/07/23 06:27:03;;;;;;;13.18;7.38;;;;;;;31.07;50.48;94785.41;5069601;28;20237;-73
2023/07/23 06:29:30;;;;;;;9.43;7.57;;;;;;;32.18;47.70;94772.69;5069788;28;20207;-74
2023/07/23 06:31:59;;;;;;;11.80;7.50;;;;;;;32.97;45.70;94777.28;5069266;28;20229;-75
2023/07/23 06:34:25;;;;;;;12.02;7.40;;;;;;;31.26;47.82;94783.53;5056590;28;20203;-71
2023/07/23 06:36:52;;;;;;;11.93;7.70;;;;;;;30.80;50.13;94785.19;5069696;28;20579;-76
2023/07/23 06:39:20;;;;;;;7.35;5.88;;;;;;;29.99;50.21;94783.97;5069741;28;20256;-71
2023/07/23 06:41:47;;;;;;;11.98;7.15;;;;;;;30.69;49.00;94779.22;5069717;28;20207;-74
2023/07/23 06:44:14;;;;;;;12.68;7.72;;;;;;;30.97;50.05;94788.59;5069394;28;20245;-76
2023/07/23 06:46:41;;;;;;;11.48;7.03;;;;;;;32.31;46.04;94779.75;5069271;28;20227;-75
2023/07/23 06:49:12;;;;;;;8.40;6.03;;;;;;;32.12;44.20;94780.91;5069432;28;20203;-74
2023/07/23 06:51:38;;;;;;;9.48;5.93;;;;;;;31.55;44.76;94777.59;5069818;28;20198;-75
2023/07/23 06:54:05;;;;;;;11.43;6.00;;;;;;;30.82;46.22;94782.72;5069055;28;20248;-71
2023/07/23 06:56:32;;;;;;;6.25;5.28;;;;;;;31.14;45.03;94792.00;5068900;28;20623;-74
2023/07/23 06:58:59;;;;;;;8.50;6.18;;;;;;;31.22;44.60;94784.88;5069408;28;20272;-74
2023/07/23 07:01:26;;;;;;;8.77;5.55;;;;;;;32.47;42.96;94779.47;5070607;28;20277;-76
2023/07/23 07:03:53;;;;;;;6.95;5.70;;;;;;;33.76;41.52;94783.69;5069448;28;20260;-75
2023/07/23 07:06:21;;;;;;;8.73;5.28;;;;;;;33.43;39.77;94785.66;5069211;28;20261;-75
2023/07/23 07:08:48;;;;;;;8.10;5.65;;;;;;;32.30;41.26;94786.59;5069476;28;20821;-75
2023/07/23 07:11:14;;;;;;;8.75;5.75;;;;;;;32.14;41.80;94796.03;5069215;28;20209;-72
2023/07/23 07:13:41;;;;;;;8.52;5.32;;;;;;;32.66;40.53;94796.31;5068967;28;20203;-72
2023/07/23 07:16:10;;;;;;;9.18;5.25;;;;;;;30.98;43.50;94792.97;5068887;28;20248;-72
2023/07/23 07:18:36;;;;;;;8.35;5.63;;;;;;;31.84;43.78;94793.31;5068882;28;20275;-77
2023/07/23 07:21:03;;;;;;;8.65;5.50;;;;;;;31.04;43.13;94800.28;5069144;28;20291;-75
2023/07/23 07:23:32;;;;;;;9.80;5.13;;;;;;;30.94;41.79;94807.06;5068960;28;20226;-70
2023/07/23 07:26:00;;;;;;;7.70;5.22;;;;;;;30.97;43.25;94786.56;5068794;28;20252;-75
2023/07/23 07:28:27;;;;;;;8.10;5.75;;;;;;;30.74;45.16;94787.03;5069097;28;20257;-74
2023/07/23 07:30:58;;;;;;;6.60;4.60;;;;;;;30.08;43.62;94788.88;5068743;28;20198;-76
2023/07/23 07:33:25;;;;;;;8.43;5.05;;;;;;;30.23;43.12;94791.97;5068590;28;20207;-74
2023/07/23 07:35:53;;;;;;;8.23;5.05;;;;;;;30.01;43.00;94792.69;5073766;28;20564;-77
2023/07/23 07:38:20;;;;;;;7.20;4.88;;;;;;;31.15;40.69;94796.38;5087992;28;20218;-76
2023/07/23 07:40:51;;;;;;;6.55;4.97;;;;;;;31.49;40.87;94793.44;5055942;28;20207;-72
2023/07/23 07:43:18;;;;;;;9.95;5.45;;;;;;;31.65;41.93;94793.25;5068936;28;20249;-76
2023/07/23 07:45:48;;;;;;;5.90;4.63;;;;;;;31.68;40.87;94792.31;5069420;28;20281;-73
2023/07/23 07:48:15;;;;;;;7.55;5.13;;;;;;;31.50;41.14;94786.59;5068651;28;20305;-75
2023/07/23 07:50:42;;;;;;;6.82;4.75;;;;;;;30.95;41.65;94791.84;5068947;28;20666;-74
2023/07/23 07:53:09;;;;;;;9.63;4.72;;;;;;;30.08;42.52;94793.69;5068786;28;20261;-75
2023/07/23 07:55:41;;;;;;;7.32;4.78;;;;;;;30.76;42.07;94790.13;5077845;28;20270;-74
2023/07/23 07:58:12;;;;;;;7.97;5.28;;;;;;;31.71;40.55;94780.16;5073010;28;20227;-78
2023/07/23 08:00:41;;;;;;;6.60;4.68;;;;;;;30.93;40.31;94780.31;5070985;28;20183;-76
2023/07/23 08:03:09;;;;;;;7.03;5.40;;;;;;;31.09;40.65;94784.94;5068748;28;20199;-76
2023/07/23 08:05:36;;;;;;;11.50;4.97;;;;;;;31.14;40.48;94780.81;5069059;28;20302;-76
2023/07/23 08:08:06;;;;;;;9.00;5.13;;;;;;;30.64;40.95;94794.56;5068744;28;20562;-71
2023/07/23 08:10:34;;;;;;;5.07;4.57;;;;;;;30.40;42.56;94785.78;5068580;28;20676;-77
2023/07/23 08:13:02;;;;;;;5.07;4.50;;;;;;;29.87;41.50;94781.97;5068792;28;20292;-73
2023/07/23 08:15:32;;;;;;;7.72;4.60;;;;;;;30.38;41.59;94782.66;5068795;28;20230;-77
2023/07/23 08:18:00;;;;;;;9.13;5.25;;;;;;;30.46;41.14;94788.00;5075123;28;20632;-76
2023/07/23 08:20:28;;;;;;;6.07;4.63;;;;;;;29.97;41.36;94789.22;5075044;28;20863;-72
2023/07/23 08:22:56;;;;;;;8.30;4.60;;;;;;;30.35;41.45;94791.94;5055241;28;20266;-74
2023/07/23 08:25:23;;;;;;;11.35;5.45;;;;;;;30.37;42.13;94792.28;5068431;28;20286;-74
2023/07/23 08:27:58;;;;;;;5.85;4.43;;;;;;;29.75;42.72;94793.13;5068679;28;20231;-73
2023/07/23 08:30:26;;;;;;;6.82;4.95;;;;;;;29.49;42.77;94784.78;5069479;28;20753;-76
2023/07/23 08:32:55;;;;;;;7.40;4.40;;;;;;;29.72;41.21;94785.66;5072276;28;20322;-72
2023/07/23 08:35:23;;;;;;;6.53;4.10;;;;;;;29.38;41.63;94798.28;5072629;28;20286;-76
2023/07/23 08:37:51;;;;;;;7.82;4.72;;;;;;;29.48;42.46;94788.78;5072037;28;20207;-77
2023/07/23 08:40:19;;;;;;;8.90;4.90;;;;;;;29.63;40.76;94795.50;5071919;28;20207;-76
2023/07/23 08:43:17;;;;;;;4.82;3.75;;;;;;;29.00;41.85;94793.34;5072016;28;20203;-72
2023/07/23 08:46:05;;;;;;;7.95;4.97;;;;;;;29.19;42.65;94783.25;5044708;28;20608;-74
2023/07/23 08:48:56;;;;;;;7.65;4.88;;;;;;;29.46;42.00;94777.28;5085789;28;20227;-71
2023/07/23 08:51:25;;;;;;;8.30;4.65;;;;;;;29.47;42.08;94787.22;5070958;28;20193;-75
2023/07/23 08:53:53;;;;;;;6.72;3.70;;;;;;;29.63;41.41;94775.16;5071114;28;20199;-70
2023/07/23 08:56:20;;;;;;;7.22;5.28;;;;;;;29.57;42.27;94780.50;5071630;28;20245;-73
2023/07/23 08:58:47;;;;;;;8.88;5.35;;;;;;;29.68;41.08;94775.38;5071807;28;20199;-73
2023/07/23 09:01:15;;;;;;;9.38;5.72;;;;;;;29.59;43.24;94771.69;5072688;28;20221;-76
2023/07/23 09:03:43;;;;;;;8.88;4.97;;;;;;;29.86;41.11;94774.03;5071596;28;20303;-70
2023/07/23 09:06:11;;;;;;;8.68;5.28;;;;;;;30.81;40.84;94769.97;5071773;28;20268;-75
2023/07/23 09:08:38;;;;;;;4.95;3.72;;;;;;;29.95;40.56;94771.31;5080622;28;20234;-74
2023/07/23 09:11:06;;;;;;;5.60;4.22;;;;;;;29.81;41.47;94766.19;5074867;28;20238;-72
2023/07/23 09:13:34;;;;;;;7.75;5.40;;;;;;;30.15;40.37;94777.47;5081451;28;20210;-72
2023/07/23 09:16:01;;;;;;;8.45;5.30;;;;;;;29.72;41.59;94780.84;5071496;28;20211;-72
2023/07/23 09:18:28;;;;;;;9.15;5.40;;;;;;;29.94;41.09;94775.34;5071216;28;20613;-73
2023/07/23 09:20:57;;;;;;;9.13;5.70;;;;;;;30.16;41.55;94781.81;5080298;28;20240;-75
2023/07/23 09:23:26;;;;;;;7.03;5.10;;;;;;;29.99;40.70;94783.19;5070809;28;20264;-72
2023/07/23 09:25:53;;;;;;;7.03;5.32;;;;;;;29.82;41.04;94784.53;5070894;28;20207;-75
2023/07/23 09:28:23;;;;;;;8.90;5.30;;;;;;;30.02;40.96;94785.09;5071320;28;20288;-76
2023/07/23 09:30:53;;;;;;;7.40;5.13;;;;;;;30.33;40.00;94786.03;5070779;28;20215;-74
2023/07/23 09:33:20;;;;;;;9.15;5.38;;;;;;;30.01;40.26;94769.56;5070948;28;20711;-71
2023/07/23 09:35:47;;;;;;;6.65;4.78;;;;;;;29.78;40.09;94787.44;5069755;28;20210;-76
2023/07/23 09:38:15;;;;;;;9.30;5.93;;;;;;;30.09;40.24;94775.69;5070426;28;20574;-76
2023/07/23 09:40:44;;;;;;;8.10;5.18;;;;;;;29.75;40.28;94784.75;5057599;28;20203;-71
2023/07/23 09:43:10;;;;;;;8.57;4.78;;;;;;;29.73;40.60;94781.63;5070003;28;20302;-75
2023/07/23 09:45:39;;;;;;;9.63;5.40;;;;;;;29.67;40.20;94784.97;5070891;28;20188;-71
2023/07/23 09:48:07;;;;;;;11.82;5.70;;;;;;;29.81;40.11;94780.16;5070972;28;20233;-77
2023/07/23 09:50:34;;;;;;;9.63;6.05;;;;;;;30.02;39.89;94765.53;5070546;28;20670;-71
2023/07/23 09:53:00;;;;;;;7.43;5.90;;;;;;;30.06;39.87;94777.38;5071115;28;20272;-72
2023/07/23 09:55:30;;;;;;;7.93;5.65;;;;;;;30.37;40.05;94772.69;5071117;28;20558;-75
2023/07/23 09:57:58;;;;;;;8.15;5.22;;;;;;;30.22;37.43;94752.06;5070772;28;20280;-72
2023/07/23 10:00:25;;;;;;;8.07;4.70;;;;;;;29.85;38.86;94772.44;5071552;28;20202;-72
2023/07/23 10:02:54;;;;;;;8.80;6.07;;;;;;;30.00;40.21;94768.00;5070377;28;20276;-72
2023/07/23 10:05:21;;;;;;;9.15;6.00;;;;;;;29.92;40.56;94761.06;5070389;28;20447;-75
2023/07/23 10:07:48;;;;;;;9.30;6.03;;;;;;;30.08;39.70;94762.94;5070643;28;20284;-75
2023/07/23 10:10:16;;;;;;;7.13;5.03;;;;;;;30.08;39.18;94763.72;5070084;28;20248;-73
2023/07/23 10:12:44;;;;;;;7.28;5.35;;;;;;;30.04;38.08;94766.66;5084010;28;20206;-75
2023/07/23 10:15:12;;;;;;;10.88;4.80;;;;;;;29.78;37.01;94761.53;5070547;28;20608;-71
2023/07/23 10:17:42;;;;;;;5.57;3.60;;;;;;;29.73;37.95;94771.25;5070232;28;20253;-70
2023/07/23 10:20:13;;;;;;;9.88;5.60;;;;;;;30.20;38.07;94748.97;5070311;28;20388;-76
2023/07/23 10:22:40;;;;;;;8.40;5.03;;;;;;;30.20;38.99;94746.16;5070107;28;20204;-71
2023/07/23 10:25:30;;;;;;;10.40;6.00;;;;;;;30.10;39.70;94755.66;5070262;28;20198;-71
2023/07/23 10:28:00;;;;;;;9.68;6.53;;;;;;;30.55;38.14;94757.34;5057878;28;20218;-75
2023/07/23 10:30:28;;;;;;;9.75;5.35;;;;;;;30.47;37.13;94736.44;5083789;28;20287;-77
2023/07/23 10:33:37;;;;;;;8.55;6.28;;;;;;;30.56;36.83;94744.94;5069941;28;20227;-74
2023/07/23 10:36:05;;;;;;;10.10;6.68;;;;;;;30.56;36.59;94753.31;5046980;28;20207;-76
2023/07/23 10:38:33;;;;;;;11.07;6.20;;;;;;;30.48;37.51;94752.00;5069831;28;20214;-73
2023/07/23 10:41:02;;;;;;;10.75;6.95;;;;;;;30.20;37.46;94740.56;5069800;28;20207;-75
2023/07/23 10:43:42;;;;;;;10.15;6.05;;;;;;;29.95;36.73;94765.72;5070159;28;20213;-72
2023/07/23 10:46:10;;;;;;;15.57;7.65;;;;;;;30.42;37.49;94753.78;5069740;28;20244;-77
2023/07/23 10:48:49;;;;;;;10.20;7.22;;;;;;;30.28;38.38;94744.66;5083086;28;20238;-75
2023/07/23 10:51:17;;;;;;;12.35;7.43;;;;;;;30.13;37.14;94743.59;5069499;28;20221;-74
2023/07/23 10:53:55;;;;;;;9.68;5.88;;;;;;;30.29;37.23;94746.22;5056160;28;20203;-72
2023/07/23 10:56:27;;;;;;;9.80;6.93;;;;;;;30.99;37.22;94742.13;5069369;28;20285;-72
2023/07/23 10:59:06;;;;;;;10.23;6.50;;;;;;;30.91;37.93;94735.22;5069605;28;20195;-74
2023/07/23 11:01:35;;;;;;;12.00;6.72;;;;;;;30.88;37.50;94746.56;5071301;28;20195;-71
2023/07/23 11:04:08;;;;;;;11.60;7.60;;;;;;;30.91;36.04;94738.03;5069817;28;20294;-75
2023/07/23 11:06:35;;;;;;;11.40;7.18;;;;;;;30.80;36.77;94745.25;5069771;28;20199;-76
2023/07/23 11:09:10;;;;;;;9.93;5.82;;;;;;;30.37;35.43;94741.94;5069681;28;20752;-72
2023/07/23 11:11:38;;;;;;;14.23;7.20;;;;;;;30.47;35.41;94737.22;5056805;28;20215;-73
2023/07/23 11:14:19;;;;;;;12.88;7.53;;;;;;;30.46;35.03;94743.28;5069659;28;20209;-72
2023/07/23 11:16:46;;;;;;;14.55;8.05;;;;;;;31.02;35.76;94730.03;5079720;28;20191;-75
2023/07/23 11:19:13;;;;;;;13.75;8.88;;;;;;;30.74;35.99;94736.69;5068737;28;20236;-74
2023/07/23 11:21:49;;;;;;;12.23;7.57;;;;;;;30.75;35.15;94749.44;5069219;28;20209;-73
2023/07/23 11:24:16;;;;;;;11.23;5.95;;;;;;;30.52;34.06;94747.81;5069312;28;20282;-74
2023/07/23 11:26:43;;;;;;;13.70;7.97;;;;;;;30.15;30.52;94727.16;5069356;28;20213;-73
2023/07/23 11:29:10;;;;;;;14.05;8.38;;;;;;;30.48;32.62;94741.56;5068943;28;20223;-70
2023/07/23 11:31:39;;;;;;;15.68;8.77;;;;;;;30.59;34.33;94730.03;5068950;28;20624;-76
2023/07/23 11:34:06;;;;;;;12.52;7.90;;;;;;;30.61;34.11;94724.78;5069168;28;20206;-73